createdAt,value
2023-03-24T05:16:17.959Z,98848.59
2023-03-24T05:18:44.478Z,98849.63
2023-03-24T05:21:11.253Z,98821.19
2023-03-24T05:23:37.727Z,98816.84
2023-03-24T05:26:04.469Z,98815.47
2023-03-24T05:28:31.184Z,98813.28
2023-03-24T05:30:57.785Z,98804.09
2023-03-24T05:33:24.348Z,98815.41
2023-03-24T05:35:51.220Z,98803.56
2023-03-24T05:38:18.351Z,98818.94
2023-03-24T05:40:44.853Z,98817.28
2023-03-24T05:43:12.488Z,98808.31
2023-03-24T05:45:39.450Z,98825.09
2023-03-24T05:48:06.346Z,98810.47
2023-03-24T05:50:33.264Z,98814.28
2023-03-24T05:53:00.508Z,98800.97
2023-03-24T05:55:27.577Z,98798.53
2023-03-24T05:57:54.190Z,98828.28
2023-03-24T06:00:20.995Z,98792.84
2023-03-24T06:02:47.550Z,98814.22
2023-03-24T06:05:14.204Z,98795.25
2023-03-24T06:07:42.561Z,98803.38
2023-03-24T06:10:11.424Z,98797.97
2023-03-24T06:12:38.551Z,98812.00
2023-03-24T06:15:06.001Z,98800.09
2023-03-24T06:17:32.603Z,98813.13
2023-03-24T06:20:05.723Z,98800.63
2023-03-24T06:22:33.710Z,98814.72
2023-03-24T06:25:00.168Z,98813.56
2023-03-24T06:27:30.425Z,98812.47
2023-03-24T06:29:57.573Z,98810.25
2023-03-24T06:32:24.440Z,98806.47
2023-03-24T06:34:51.082Z,98826.50
2023-03-24T06:37:17.649Z,98827.03
2023-03-24T06:39:44.380Z,98820.53
2023-03-24T06:42:10.897Z,98815.91
2023-03-24T06:44:37.530Z,98841.88
2023-03-24T06:47:04.250Z,98843.78
2023-03-24T06:49:30.953Z,98836.69
2023-03-24T06:51:57.448Z,98865.97
2023-03-24T06:54:23.895Z,98858.44
2023-03-24T06:56:50.411Z,98871.38
2023-03-24T06:59:18.007Z,98896.03
2023-03-24T07:01:44.542Z,98890.38
2023-03-24T07:04:11.458Z,98884.91
2023-03-24T07:06:50.901Z,98873.34
2023-03-24T07:09:26.150Z,98885.56
2023-03-24T07:11:52.578Z,98874.25
2023-03-24T07:14:19.237Z,98873.09
2023-03-24T07:16:45.774Z,98864.47
2023-03-24T07:19:12.481Z,98857.47
2023-03-24T07:21:38.927Z,98860.66
2023-03-24T07:24:05.608Z,98887.09
2023-03-24T07:26:32.048Z,98898.13
2023-03-24T07:28:58.516Z,98895.91
2023-03-24T07:31:25.218Z,98895.41
2023-03-24T07:33:51.948Z,98912.72
2023-03-24T07:36:18.433Z,98919.19
2023-03-24T07:38:44.973Z,98928.88
2023-03-24T07:41:11.468Z,98932.66
2023-03-24T07:43:37.969Z,98923.66
2023-03-24T07:46:04.477Z,98923.44
2023-03-24T07:48:31.018Z,98925.81
2023-03-24T07:50:57.510Z,98932.25
2023-03-24T07:53:24.049Z,98929.91
2023-03-24T07:55:50.793Z,98941.75
2023-03-24T07:58:17.363Z,98951.50
2023-03-24T08:00:44.808Z,98953.63
2023-03-24T08:03:14.576Z,98969.81
2023-03-24T08:05:41.845Z,98956.56
2023-03-24T08:08:08.366Z,98958.16
2023-03-24T08:10:35.163Z,98967.56
2023-03-24T08:13:02.706Z,98975.97
2023-03-24T08:15:29.181Z,98968.59
2023-03-24T08:17:56.944Z,98982.66
2023-03-24T08:20:25.098Z,98983.47
2023-03-24T08:22:54.448Z,98985.31
2023-03-24T08:25:22.650Z,98991.81
2023-03-24T08:27:49.164Z,98997.72
2023-03-24T08:30:20.441Z,99004.69
2023-03-24T08:32:48.549Z,98998.25
2023-03-24T08:35:16.119Z,98997.59
2023-03-24T08:37:43.464Z,98999.47
2023-03-24T08:40:14.360Z,99006.22
2023-03-24T08:42:41.535Z,99015.38
2023-03-24T08:45:09.754Z,99028.31
2023-03-24T08:47:36.271Z,99031.56
2023-03-24T08:50:02.752Z,99038.22
2023-03-24T08:52:29.204Z,99028.66
2023-03-24T08:54:55.706Z,99037.00
2023-03-24T08:57:22.316Z,99053.22
2023-03-24T08:59:50.927Z,99036.00
2023-03-24T09:02:17.928Z,99058.06
2023-03-24T09:04:45.992Z,99054.19
2023-03-24T09:07:12.730Z,99039.97
2023-03-24T09:09:40.124Z,99064.91
2023-03-24T09:12:06.753Z,99043.06
2023-03-24T09:14:33.350Z,99053.34
2023-03-24T09:16:59.778Z,99057.69
2023-03-24T09:19:26.308Z,99066.94
2023-03-24T09:21:52.821Z,99061.56
2023-03-24T09:24:19.296Z,99057.84
2023-03-24T09:26:46.033Z,99040.19
2023-03-24T09:29:12.478Z,99065.28
2023-03-24T09:31:38.989Z,99075.09
2023-03-24T09:34:05.507Z,99071.63
2023-03-24T09:36:34.864Z,99069.06
2023-03-24T09:39:01.313Z,99079.16
2023-03-24T09:41:29.176Z,99087.56
2023-03-24T09:44:28.254Z,99080.63
2023-03-24T09:46:57.388Z,99096.34
2023-03-24T09:49:27.753Z,99083.69
2023-03-24T09:51:56.929Z,99097.25
2023-03-24T09:54:26.279Z,99101.88
2023-03-24T09:56:54.645Z,99099.94
2023-03-24T09:59:36.390Z,99113.84
2023-03-24T10:02:10.576Z,99116.31
2023-03-24T10:04:37.346Z,99100.00
2023-03-24T10:07:16.333Z,99100.00
2023-03-24T10:09:44.884Z,99092.91
2023-03-24T10:12:11.510Z,99112.97
2023-03-24T10:14:44.108Z,99108.34
2023-03-24T10:17:13.622Z,99096.41
2023-03-24T10:20:03.506Z,99105.09
2023-03-24T10:22:32.892Z,99105.09
2023-03-24T10:24:59.488Z,99115.03
2023-03-24T10:27:34.757Z,99121.00
2023-03-24T10:30:05.055Z,99128.84
2023-03-24T10:32:34.541Z,99128.25
2023-03-24T10:35:09.749Z,99122.19
2023-03-24T10:37:37.052Z,99141.94
2023-03-24T10:40:12.578Z,99133.16
2023-03-24T10:42:39.372Z,99119.81
2023-03-24T10:45:06.229Z,99132.19
2023-03-24T10:47:34.223Z,99134.28
2023-03-24T10:50:12.026Z,99145.06
2023-03-24T10:52:42.194Z,99143.69
2023-03-24T10:55:14.309Z,99139.00
2023-03-24T10:57:43.128Z,99146.50
2023-03-24T11:00:19.057Z,99161.09
2023-03-24T11:02:54.140Z,99145.97
2023-03-24T11:05:23.633Z,99156.47
2023-03-24T11:07:51.831Z,99147.88
2023-03-24T11:10:21.097Z,99162.22
2023-03-24T11:12:53.602Z,99159.97
2023-03-24T11:15:22.873Z,99161.00
2023-03-24T11:18:01.766Z,99144.94
2023-03-24T11:20:33.128Z,99142.72
2023-03-24T11:23:19.225Z,99143.00
2023-03-24T11:25:49.814Z,99153.50
2023-03-24T11:28:18.084Z,99159.16
2023-03-24T11:30:49.167Z,99162.31
2023-03-24T11:33:19.243Z,99138.22
2023-03-24T11:35:50.333Z,99141.97
2023-03-24T11:38:29.675Z,99142.81
2023-03-24T11:41:00.891Z,99143.72
2023-03-24T11:43:28.261Z,99139.72
2023-03-24T11:46:05.173Z,99133.06
2023-03-24T11:48:34.742Z,99145.97
2023-03-24T11:51:01.466Z,99135.78
2023-03-24T11:53:31.767Z,99127.22
2023-03-24T11:56:06.960Z,99122.78
2023-03-24T11:58:46.220Z,99128.44
2023-03-24T12:01:12.702Z,99126.28
2023-03-24T12:03:58.028Z,99124.03
2023-03-24T12:06:30.456Z,99131.59
2023-03-24T12:09:09.508Z,99138.44
2023-03-24T12:11:44.831Z,99146.59
2023-03-24T12:14:11.282Z,99157.47
2023-03-24T12:16:52.024Z,99168.38
2023-03-24T12:19:21.567Z,99172.22
2023-03-24T12:22:13.243Z,99151.56
2023-03-24T12:24:58.333Z,99177.72
2023-03-24T12:27:43.457Z,99181.84
2023-03-24T12:30:20.090Z,99193.13
2023-03-24T12:32:56.473Z,99210.06
2023-03-24T12:35:46.966Z,99184.25
2023-03-24T12:38:16.585Z,99191.69
2023-03-24T12:40:46.040Z,99202.03
2023-03-24T12:43:24.431Z,99195.72
2023-03-24T12:45:53.505Z,99205.56
2023-03-24T12:48:46.486Z,99197.19
2023-03-24T12:51:23.093Z,99192.66
2023-03-24T12:54:09.897Z,99190.53
2023-03-24T12:56:39.789Z,99191.03
2023-03-24T12:59:20.061Z,99174.44
2023-03-24T13:01:50.310Z,99166.97
2023-03-24T13:04:26.571Z,99172.34
2023-03-24T13:07:02.193Z,99151.81
2023-03-24T13:09:40.192Z,99156.84
2023-03-24T13:12:21.279Z,99157.75
2023-03-24T13:14:53.988Z,99153.34
2023-03-24T13:17:31.062Z,99149.81
2023-03-24T13:19:58.167Z,99144.56
2023-03-24T13:22:25.300Z,99138.00
2023-03-24T13:24:53.790Z,99140.44
2023-03-24T13:27:20.861Z,99135.09
2023-03-24T13:29:49.878Z,99129.25
2023-03-24T13:32:16.522Z,99130.88
2023-03-24T13:34:55.150Z,99135.63
2023-03-24T13:37:48.797Z,99150.44
2023-03-24T13:40:21.082Z,99146.81
2023-03-24T13:42:53.285Z,99153.84
2023-03-24T13:45:27.278Z,99152.03
2023-03-24T13:48:03.136Z,99148.19
2023-03-24T13:50:31.494Z,99159.00
2023-03-24T13:53:01.732Z,99158.59
2023-03-24T13:55:29.291Z,99158.09
2023-03-24T13:57:57.591Z,99164.31
2023-03-24T14:00:24.972Z,99164.94
2023-03-24T14:02:55.071Z,99167.34
2023-03-24T14:05:30.657Z,99154.88
2023-03-24T14:08:03.296Z,99166.78
2023-03-24T14:10:40.410Z,99166.25
2023-03-24T14:13:12.864Z,99154.38
2023-03-24T14:15:58.282Z,99160.00
2023-03-24T14:18:25.315Z,99151.94
2023-03-24T14:20:58.110Z,99147.19
2023-03-24T14:23:43.807Z,99155.69
2023-03-24T14:26:14.952Z,99165.16
2023-03-24T14:28:42.736Z,99157.59
2023-03-24T14:31:17.293Z,99158.09
2023-03-24T14:33:53.634Z,99152.94
2023-03-24T14:36:25.600Z,99151.03
2023-03-24T14:38:52.278Z,99165.56
2023-03-24T14:41:27.348Z,99167.19
2023-03-24T14:43:56.031Z,99167.59
2023-03-24T14:46:22.531Z,99165.13
2023-03-24T14:48:56.398Z,99170.50
2023-03-24T14:51:36.636Z,99175.63
2023-03-24T14:54:05.576Z,99170.03
2023-03-24T14:56:35.720Z,99179.06
2023-03-24T14:59:05.782Z,99155.44
2023-03-24T15:01:33.798Z,99159.28
2023-03-24T15:04:05.511Z,99164.53
2023-03-24T15:06:32.148Z,99172.47
2023-03-24T15:08:59.894Z,99167.94
2023-03-24T15:11:28.517Z,99171.38
2023-03-24T15:13:56.111Z,99166.13
2023-03-24T15:16:25.249Z,99160.09
2023-03-24T15:19:01.404Z,99168.56
2023-03-24T15:21:38.964Z,99149.00
2023-03-24T15:24:23.438Z,99183.25
2023-03-24T15:26:52.713Z,99160.47
2023-03-24T15:29:19.234Z,99153.44
2023-03-24T15:31:45.748Z,99146.88
2023-03-24T15:34:27.476Z,99126.94
2023-03-24T15:36:55.698Z,99128.75
2023-03-24T15:39:25.901Z,99154.84
2023-03-24T15:41:53.021Z,99137.53
2023-03-24T15:44:25.782Z,99128.75
2023-03-24T15:46:54.533Z,99138.72
2023-03-24T15:49:24.422Z,99138.63
2023-03-24T15:51:57.091Z,99146.38
2023-03-24T15:54:24.926Z,99139.13
2023-03-24T15:57:21.202Z,99138.44
2023-03-24T15:59:51.827Z,99136.28
2023-03-24T16:02:34.022Z,99130.44
2023-03-24T16:07:33.300Z,99123.31
2023-03-24T16:10:04.623Z,99131.25
2023-03-24T16:12:32.358Z,99128.81
2023-03-24T16:14:58.874Z,99131.84
2023-03-24T16:17:25.452Z,99124.78
2023-03-24T16:19:51.998Z,99137.88
2023-03-24T16:22:18.494Z,99138.03
2023-03-24T16:24:45.007Z,99134.03
2023-03-24T16:27:15.013Z,99167.75
2023-03-24T16:29:42.296Z,99158.06
2023-03-24T16:32:09.579Z,99166.16
2023-03-24T16:34:36.867Z,99162.31
2023-03-24T16:37:04.460Z,99171.66
2023-03-24T16:39:31.312Z,99174.03
2023-03-24T16:41:58.109Z,99175.91
2023-03-24T16:44:24.635Z,99169.69
2023-03-24T16:46:52.047Z,99170.63
2023-03-24T16:49:19.232Z,99187.50
2023-03-24T16:51:46.102Z,99185.41
2023-03-24T16:54:17.617Z,99217.03
2023-03-24T16:56:44.145Z,99242.09
2023-03-24T16:59:12.641Z,99266.81
2023-03-24T17:01:40.422Z,99273.69
2023-03-24T17:04:09.809Z,99267.66
2023-03-24T17:06:37.495Z,99277.56
2023-03-24T17:09:06.135Z,99285.03
2023-03-24T17:11:33.865Z,99280.56
2023-03-24T17:14:04.892Z,99315.94
2023-03-24T17:16:32.477Z,99315.50
2023-03-24T17:18:58.968Z,99316.16
2023-03-24T17:21:25.545Z,99305.97
2023-03-24T17:23:55.113Z,99281.06
2023-03-24T17:26:22.481Z,99279.53
2023-03-24T17:28:48.968Z,99279.59
2023-03-24T17:31:15.684Z,99275.84
2023-03-24T17:33:42.584Z,99278.34
2023-03-24T17:36:13.756Z,99277.84
2023-03-24T17:38:40.977Z,99281.94
2023-03-24T17:41:07.443Z,99283.84
2023-03-24T17:43:33.965Z,99277.66
2023-03-24T17:46:01.440Z,99292.00
2023-03-24T17:48:28.449Z,99290.16
2023-03-24T17:50:56.207Z,99284.75
2023-03-24T17:53:28.664Z,99282.91
2023-03-24T17:55:59.447Z,99280.22
2023-03-24T17:58:30.267Z,99279.66
2023-03-24T18:00:58.271Z,99281.31
2023-03-24T18:03:26.017Z,99288.06
2023-03-24T18:05:52.640Z,99280.47
2023-03-24T18:08:19.268Z,99285.34
2023-03-24T18:10:46.407Z,99276.72
2023-03-24T18:13:12.996Z,99294.28
2023-03-24T18:15:41.287Z,99287.81
2023-03-24T18:18:08.121Z,99290.78
2023-03-24T18:20:36.462Z,99281.59
2023-03-24T18:23:02.927Z,99291.88
2023-03-24T18:25:29.552Z,99288.91
2023-03-24T18:27:56.352Z,99282.97
2023-03-24T18:30:22.902Z,99285.94
2023-03-24T18:32:49.592Z,99286.50
2023-03-24T18:35:19.053Z,99287.56
2023-03-24T18:37:45.693Z,99279.22
2023-03-24T18:40:12.361Z,99291.38
2023-03-24T18:42:38.941Z,99282.72
2023-03-24T18:45:06.527Z,99288.69
2023-03-24T18:47:33.069Z,99287.34
2023-03-24T18:50:01.945Z,99287.06
2023-03-24T18:52:28.531Z,99293.25
2023-03-24T18:54:55.338Z,99304.63
2023-03-24T18:57:22.001Z,99297.31
2023-03-24T18:59:48.778Z,99301.38
2023-03-24T19:02:16.080Z,99301.66
2023-03-24T19:04:43.846Z,99306.53
2023-03-24T19:07:14.484Z,99304.63
2023-03-24T19:09:42.292Z,99293.81
2023-03-24T19:12:09.007Z,99284.34
2023-03-24T19:14:35.541Z,99286.53
2023-03-24T19:17:02.984Z,99284.38
2023-03-24T19:19:31.761Z,99287.63
2023-03-24T19:21:58.705Z,99288.16
2023-03-24T19:24:26.420Z,99289.50
2023-03-24T19:26:53.443Z,99286.25
2023-03-24T19:29:20.218Z,99291.41
2023-03-24T19:31:46.998Z,99293.03
2023-03-24T19:34:13.634Z,99290.34
2023-03-24T19:36:46.380Z,99293.31
2023-03-24T19:39:14.081Z,99291.41
2023-03-24T19:41:41.290Z,99283.31
2023-03-24T19:44:07.828Z,99294.94
2023-03-24T19:46:34.394Z,99290.31
2023-03-24T19:49:01.107Z,99292.47
2023-03-24T19:51:27.582Z,99297.06
2023-03-24T19:53:54.033Z,99289.53
2023-03-24T19:56:21.889Z,99281.41
2023-03-24T19:58:57.473Z,99292.75
2023-03-24T20:01:24.166Z,99275.75
2023-03-24T20:03:51.091Z,99280.34
2023-03-24T20:06:19.628Z,99284.91
2023-03-24T20:08:46.538Z,99285.75
2023-03-24T20:11:13.230Z,99284.91
2023-03-24T20:13:40.129Z,99277.88
2023-03-24T20:16:06.757Z,99271.69
2023-03-24T20:18:34.460Z,99285.47
2023-03-24T20:21:02.292Z,99271.41
2023-03-24T20:23:28.871Z,99267.63
2023-03-24T20:25:58.574Z,99260.59
2023-03-24T20:28:25.081Z,99264.41
2023-03-24T20:30:52.509Z,99262.75
2023-03-24T20:33:19.189Z,99262.19
2023-03-24T20:35:45.935Z,99254.38
2023-03-24T20:38:12.561Z,99262.75
2023-03-24T20:40:39.200Z,99255.72
2023-03-24T20:43:05.885Z,99259.50
2023-03-24T20:45:33.309Z,99263.53
2023-03-24T20:47:59.905Z,99263.81
2023-03-24T20:50:27.653Z,99259.50
2023-03-24T20:52:54.291Z,99264.34
2023-03-24T20:55:20.950Z,99264.91
2023-03-24T20:57:47.729Z,99258.94
2023-03-24T21:00:14.523Z,99265.41
2023-03-24T21:02:44.166Z,99259.75
2023-03-24T21:05:10.948Z,99256.22
2023-03-24T21:07:38.470Z,99257.84
2023-03-24T21:10:06.588Z,99261.09
2023-03-24T21:12:33.780Z,99262.69
2023-03-24T21:15:00.577Z,99264.88
2023-03-24T21:17:32.832Z,99269.19
2023-03-24T21:20:13.305Z,99269.19
2023-03-24T21:22:55.950Z,99260.28
2023-03-24T21:25:24.838Z,99241.66
2023-03-24T21:27:51.613Z,99247.03
2023-03-24T21:30:21.618Z,99237.31
2023-03-24T21:32:48.949Z,99238.16
2023-03-24T21:35:16.206Z,99227.38
2023-03-24T21:37:45.726Z,99234.91
2023-03-24T21:40:19.883Z,99233.03
2023-03-24T21:42:47.025Z,99234.91
2023-03-24T21:45:15.437Z,99234.09
2023-03-24T21:47:42.507Z,99231.69
2023-03-24T21:50:09.356Z,99234.63
2023-03-24T21:52:41.785Z,99239.22
2023-03-24T21:55:10.620Z,99226.78
2023-03-24T21:57:37.124Z,99224.38
2023-03-24T22:00:10.755Z,99221.94
2023-03-24T22:02:38.480Z,99219.53
2023-03-24T22:05:05.306Z,99215.19
2023-03-24T22:07:37.673Z,99212.22
2023-03-24T22:10:05.765Z,99210.63
2023-03-24T22:12:32.390Z,99211.94
2023-03-24T22:14:58.970Z,99206.00
2023-03-24T22:17:25.864Z,99207.63
2023-03-24T22:19:52.496Z,99209.75
2023-03-24T22:22:19.013Z,99206.53
2023-03-24T22:24:45.548Z,99211.63
2023-03-24T22:27:12.046Z,99203.81
2023-03-24T22:29:38.670Z,99208.13
2023-03-24T22:32:05.533Z,99197.34
2023-03-24T22:34:32.303Z,99203.81
2023-03-24T22:36:58.916Z,99203.28
2023-03-24T22:39:26.200Z,99208.91
2023-03-24T22:41:52.708Z,99198.94
2023-03-24T22:44:19.966Z,99193.00
2023-03-24T22:46:46.855Z,99194.63
2023-03-24T22:49:13.487Z,99191.41
2023-03-24T22:51:40.001Z,99192.19
2023-03-24T22:54:06.522Z,99190.56
2023-03-24T22:56:33.070Z,99203.25
2023-03-24T22:58:59.935Z,99206.72
2023-03-24T23:01:26.633Z,99201.91
2023-03-24T23:03:53.191Z,99203.53
2023-03-24T23:06:19.853Z,99183.28
2023-03-24T23:08:46.333Z,99183.28
2023-03-24T23:11:14.611Z,99183.28
2023-03-24T23:13:41.200Z,99185.44
2023-03-24T23:16:08.074Z,99205.38
